N600JV KMMU-KMVL
Flight info
| Callsign | N600JV |
|---|---|
| Flight time | 1h 10m |
| Altitude | 7000 |
| Route | BREZY V39 CMK GREKI JUDDS CAM |
| Aircraft | AEST/L-SDFGRY/S |
Departure
| Time | 2026-05-06 01:59 |
|---|---|
| Airport | Morristown Municipal Airport (KMMU) |
Arrival
| Time | 2026-05-06 03:09 |
|---|---|
| Airport | Morrisville-Stowe State Airport (KMVL) |
| Time | Latitude | Longitude | Altitude | Speed | Heading |
|---|---|---|---|---|---|
| 2026-05-06 01:33 | 40.79911 | -74.42582 | 193 ft | 0 kts | 205° |
| 2026-05-06 01:47 | 40.79910 | -74.42582 | 193 ft | 1 kts | 205° |
| 2026-05-06 01:48 | 40.79909 | -74.42582 | 193 ft | 0 kts | 205° |
| 2026-05-06 01:48 | 40.79909 | -74.42583 | 193 ft | 0 kts | 205° |
| 2026-05-06 01:48 | 40.79901 | -74.42588 | 193 ft | 0 kts | 205° |
| 2026-05-06 01:51 | 40.79884 | -74.42596 | 197 ft | 4 kts | 185° |
| 2026-05-06 01:51 | 40.79878 | -74.42537 | 193 ft | 14 kts | 47° |
| 2026-05-06 01:51 | 40.79963 | -74.42433 | 189 ft | 15 kts | 30° |
| 2026-05-06 01:52 | 40.79974 | -74.42319 | 190 ft | 15 kts | 114° |
| 2026-05-06 01:52 | 40.79926 | -74.42175 | 191 ft | 19 kts | 113° |
| 2026-05-06 01:52 | 40.79868 | -74.41994 | 187 ft | 22 kts | 113° |
| 2026-05-06 01:52 | 40.79803 | -74.41811 | 192 ft | 21 kts | 114° |
| 2026-05-06 01:53 | 40.79778 | -74.41672 | 183 ft | 14 kts | 57° |
| 2026-05-06 01:53 | 40.79863 | -74.41575 | 194 ft | 19 kts | 37° |
| 2026-05-06 01:53 | 40.79981 | -74.41462 | 194 ft | 21 kts | 37° |
| 2026-05-06 01:53 | 40.80098 | -74.41348 | 186 ft | 21 kts | 35° |
| 2026-05-06 01:54 | 40.80218 | -74.41231 | 190 ft | 22 kts | 37° |
| 2026-05-06 01:54 | 40.80338 | -74.41115 | 191 ft | 22 kts | 35° |
| 2026-05-06 01:54 | 40.80460 | -74.41003 | 185 ft | 20 kts | 37° |
| 2026-05-06 01:54 | 40.80573 | -74.40893 | 187 ft | 22 kts | 34° |
| 2026-05-06 01:55 | 40.80684 | -74.40830 | 189 ft | 13 kts | 22° |
| 2026-05-06 01:55 | 40.80685 | -74.40853 | 188 ft | 0 kts | 194° |
| 2026-05-06 01:57 | 40.80682 | -74.40853 | 188 ft | 6 kts | 186° |
| 2026-05-06 01:57 | 40.80687 | -74.40741 | 190 ft | 18 kts | 113° |
| 2026-05-06 01:57 | 40.80606 | -74.40685 | 188 ft | 16 kts | 220° |
| 2026-05-06 01:57 | 40.80596 | -74.40695 | 187 ft | 0 kts | 215° |
| 2026-05-06 01:58 | 40.80571 | -74.40718 | 186 ft | 26 kts | 214° |
| 2026-05-06 01:58 | 40.80195 | -74.41070 | 183 ft | 95 kts | 216° |
| 2026-05-06 01:59 | 40.79595 | -74.41636 | 297 ft | 115 kts | 218° |
| 2026-05-06 01:59 | 40.79011 | -74.42248 | 996 ft | 97 kts | 217° |
| 2026-05-06 01:59 | 40.78409 | -74.42677 | 1503 ft | 107 kts | 198° |
| 2026-05-06 01:59 | 40.77667 | -74.42926 | 2005 ft | 110 kts | 192° |
| 2026-05-06 02:00 | 40.76933 | -74.42661 | 2313 ft | 120 kts | 148° |
| 2026-05-06 02:00 | 40.76312 | -74.41885 | 2647 ft | 129 kts | 140° |
| 2026-05-06 02:00 | 40.76143 | -74.40602 | 2640 ft | 165 kts | 78° |
| 2026-05-06 02:00 | 40.76929 | -74.39560 | 3117 ft | 169 kts | 22° |
| 2026-05-06 02:01 | 40.78016 | -74.38972 | 3647 ft | 167 kts | 18° |
| 2026-05-06 02:01 | 40.79095 | -74.38423 | 4023 ft | 172 kts | 15° |
| 2026-05-06 02:01 | 40.80213 | -74.37860 | 4451 ft | 172 kts | 14° |
| 2026-05-06 02:01 | 40.81226 | -74.37024 | 4776 ft | 176 kts | 45° |
| 2026-05-06 02:02 | 40.82155 | -74.35951 | 5145 ft | 181 kts | 30° |
| 2026-05-06 02:02 | 40.83256 | -74.35153 | 5524 ft | 179 kts | 21° |
| 2026-05-06 02:02 | 40.84376 | -74.34429 | 5905 ft | 178 kts | 19° |
| 2026-05-06 02:02 | 40.85494 | -74.33708 | 6245 ft | 180 kts | 19° |
| 2026-05-06 02:03 | 40.86619 | -74.32971 | 6576 ft | 180 kts | 19° |
| 2026-05-06 02:03 | 40.87740 | -74.32229 | 6890 ft | 181 kts | 19° |
| 2026-05-06 02:03 | 40.88867 | -74.31482 | 7196 ft | 181 kts | 19° |
| 2026-05-06 02:03 | 40.89991 | -74.30734 | 7493 ft | 181 kts | 19° |
| 2026-05-06 02:04 | 40.91121 | -74.29983 | 7748 ft | 184 kts | 18° |
| 2026-05-06 02:04 | 40.92263 | -74.29222 | 8047 ft | 184 kts | 18° |
| 2026-05-06 02:04 | 40.93398 | -74.28466 | 8317 ft | 182 kts | 18° |
| 2026-05-06 02:04 | 40.94527 | -74.27715 | 8576 ft | 181 kts | 17° |
| 2026-05-06 02:05 | 40.95648 | -74.26969 | 8829 ft | 181 kts | 17° |
| 2026-05-06 02:05 | 40.96767 | -74.26223 | 9069 ft | 179 kts | 17° |
| 2026-05-06 02:05 | 40.97881 | -74.25483 | 9294 ft | 179 kts | 17° |
| 2026-05-06 02:05 | 40.98993 | -74.24739 | 9521 ft | 179 kts | 17° |
| 2026-05-06 02:06 | 41.00104 | -74.23996 | 9739 ft | 178 kts | 16° |
| 2026-05-06 02:06 | 41.01238 | -74.23251 | 9772 ft | 187 kts | 17° |
| 2026-05-06 02:06 | 41.02429 | -74.22463 | 9799 ft | 195 kts | 18° |
| 2026-05-06 02:06 | 41.03259 | -74.21905 | 9868 ft | 197 kts | 18° |
| 2026-05-06 02:07 | 41.03996 | -74.21408 | 9935 ft | 197 kts | 18° |
| 2026-05-06 02:07 | 41.05221 | -74.20586 | 10048 ft | 198 kts | 18° |
| 2026-05-06 02:07 | 41.06457 | -74.19758 | 10023 ft | 205 kts | 18° |
| 2026-05-06 02:07 | 41.07805 | -74.18874 | 9807 ft | 226 kts | 19° |
| 2026-05-06 02:08 | 41.09246 | -74.17908 | 9668 ft | 238 kts | 19° |
| 2026-05-06 02:08 | 41.10260 | -74.17219 | 9580 ft | 245 kts | 20° |
| 2026-05-06 02:08 | 41.12308 | -74.15842 | 9451 ft | 250 kts | 20° |
| 2026-05-06 02:08 | 41.13851 | -74.14794 | 9394 ft | 249 kts | 22° |
| 2026-05-06 02:09 | 41.15224 | -74.13366 | 9249 ft | 254 kts | 43° |
| 2026-05-06 02:09 | 41.16219 | -74.11404 | 9143 ft | 260 kts | 65° |
| 2026-05-06 02:09 | 41.16816 | -74.09124 | 9099 ft | 262 kts | 74° |
| 2026-05-06 02:09 | 41.17178 | -74.07566 | 9065 ft | 262 kts | 76° |
| 2026-05-06 02:10 | 41.17836 | -74.04499 | 9000 ft | 261 kts | 77° |
| 2026-05-06 02:10 | 41.18173 | -74.02934 | 8965 ft | 261 kts | 77° |
| 2026-05-06 02:10 | 41.18676 | -74.00651 | 8920 ft | 261 kts | 76° |
| 2026-05-06 02:10 | 41.19198 | -73.98302 | 8885 ft | 263 kts | 76° |
| 2026-05-06 02:11 | 41.19707 | -73.95998 | 8838 ft | 262 kts | 76° |
| 2026-05-06 02:11 | 41.20217 | -73.93693 | 8866 ft | 259 kts | 76° |
| 2026-05-06 02:11 | 41.20723 | -73.91404 | 8867 ft | 258 kts | 76° |
| 2026-05-06 02:11 | 41.21227 | -73.89111 | 8876 ft | 260 kts | 76° |
| 2026-05-06 02:12 | 41.21736 | -73.86801 | 8875 ft | 261 kts | 77° |
| 2026-05-06 02:12 | 41.22243 | -73.84500 | 8879 ft | 260 kts | 77° |
| 2026-05-06 02:12 | 41.22748 | -73.82190 | 8886 ft | 261 kts | 77° |
| 2026-05-06 02:12 | 41.23256 | -73.79874 | 8885 ft | 262 kts | 77° |
| 2026-05-06 02:13 | 41.23766 | -73.77553 | 8890 ft | 262 kts | 77° |
| 2026-05-06 02:13 | 41.24277 | -73.75226 | 8881 ft | 262 kts | 77° |
| 2026-05-06 02:13 | 41.24787 | -73.72901 | 8879 ft | 262 kts | 77° |
| 2026-05-06 02:13 | 41.25295 | -73.70574 | 8883 ft | 263 kts | 77° |
| 2026-05-06 02:14 | 41.25806 | -73.68234 | 8880 ft | 263 kts | 77° |
| 2026-05-06 02:14 | 41.26315 | -73.65905 | 8882 ft | 262 kts | 77° |
| 2026-05-06 02:14 | 41.26823 | -73.63573 | 8886 ft | 263 kts | 77° |
| 2026-05-06 02:14 | 41.27328 | -73.61246 | 8895 ft | 262 kts | 77° |
| 2026-05-06 02:15 | 41.27915 | -73.58950 | 8886 ft | 263 kts | 66° |
| 2026-05-06 02:15 | 41.28928 | -73.56938 | 8895 ft | 263 kts | 47° |
| 2026-05-06 02:15 | 41.30194 | -73.55189 | 8904 ft | 262 kts | 43° |
| 2026-05-06 02:15 | 41.31477 | -73.53472 | 8898 ft | 262 kts | 41° |
| 2026-05-06 02:16 | 41.32770 | -73.51774 | 8904 ft | 261 kts | 41° |
| 2026-05-06 02:16 | 41.34068 | -73.50074 | 8901 ft | 263 kts | 41° |
| 2026-05-06 02:16 | 41.35357 | -73.48343 | 8907 ft | 264 kts | 42° |
| 2026-05-06 02:16 | 41.36649 | -73.46610 | 8914 ft | 264 kts | 42° |
| 2026-05-06 02:17 | 41.37939 | -73.44894 | 8919 ft | 263 kts | 42° |
| 2026-05-06 02:17 | 41.39235 | -73.43165 | 8932 ft | 263 kts | 42° |
| 2026-05-06 02:17 | 41.40523 | -73.41433 | 8939 ft | 264 kts | 42° |
| 2026-05-06 02:17 | 41.41817 | -73.39699 | 8958 ft | 264 kts | 41° |
| 2026-05-06 02:18 | 41.43114 | -73.37968 | 8968 ft | 264 kts | 42° |
| 2026-05-06 02:18 | 41.44407 | -73.36235 | 8966 ft | 264 kts | 42° |
| 2026-05-06 02:18 | 41.45687 | -73.34525 | 8974 ft | 264 kts | 42° |
| 2026-05-06 02:18 | 41.46981 | -73.32783 | 8971 ft | 263 kts | 42° |
| 2026-05-06 02:19 | 41.48269 | -73.31048 | 8987 ft | 263 kts | 42° |
| 2026-05-06 02:19 | 41.49571 | -73.29324 | 8990 ft | 264 kts | 41° |
| 2026-05-06 02:19 | 41.50877 | -73.27600 | 8993 ft | 264 kts | 41° |
| 2026-05-06 02:19 | 41.52175 | -73.25878 | 9016 ft | 262 kts | 42° |
| 2026-05-06 02:20 | 41.54756 | -73.22435 | 9001 ft | 262 kts | 42° |
| 2026-05-06 02:20 | 41.56051 | -73.20716 | 9020 ft | 262 kts | 42° |
| 2026-05-06 02:20 | 41.57341 | -73.18991 | 9021 ft | 263 kts | 42° |
| 2026-05-06 02:21 | 41.58639 | -73.17270 | 9025 ft | 263 kts | 42° |
| 2026-05-06 02:21 | 41.59935 | -73.15546 | 9040 ft | 263 kts | 42° |
| 2026-05-06 02:21 | 41.61226 | -73.13818 | 9047 ft | 263 kts | 42° |
| 2026-05-06 02:21 | 41.62679 | -73.12338 | 8999 ft | 264 kts | 24° |
| 2026-05-06 02:22 | 41.64377 | -73.11481 | 9014 ft | 258 kts | 5° |
| 2026-05-06 02:22 | 41.66113 | -73.11293 | 9134 ft | 244 kts | 347° |
| 2026-05-06 02:22 | 41.67766 | -73.11531 | 9176 ft | 235 kts | 343° |
| 2026-05-06 02:22 | 41.69376 | -73.11803 | 9203 ft | 233 kts | 341° |
| 2026-05-06 02:23 | 41.70984 | -73.12092 | 9159 ft | 234 kts | 341° |
| 2026-05-06 02:23 | 41.72591 | -73.12369 | 9171 ft | 232 kts | 342° |
| 2026-05-06 02:23 | 41.74198 | -73.12640 | 9165 ft | 233 kts | 341° |
| 2026-05-06 02:23 | 41.75788 | -73.12911 | 9142 ft | 233 kts | 341° |
| 2026-05-06 02:24 | 41.77420 | -73.13195 | 9142 ft | 233 kts | 341° |
| 2026-05-06 02:24 | 41.78990 | -73.13470 | 9105 ft | 231 kts | 340° |
| 2026-05-06 02:24 | 41.80583 | -73.13739 | 9081 ft | 231 kts | 342° |
| 2026-05-06 02:24 | 41.82183 | -73.14004 | 9079 ft | 233 kts | 342° |
| 2026-05-06 02:25 | 41.83799 | -73.14275 | 9101 ft | 234 kts | 341° |
| 2026-05-06 02:25 | 41.85417 | -73.14556 | 9110 ft | 235 kts | 341° |
| 2026-05-06 02:25 | 41.87034 | -73.14833 | 9126 ft | 234 kts | 341° |
| 2026-05-06 02:25 | 41.88646 | -73.15105 | 9131 ft | 233 kts | 341° |
| 2026-05-06 02:26 | 41.90256 | -73.15385 | 9106 ft | 233 kts | 341° |
| 2026-05-06 02:26 | 41.91869 | -73.15671 | 9088 ft | 234 kts | 342° |
| 2026-05-06 02:26 | 41.93487 | -73.15941 | 9086 ft | 234 kts | 342° |
| 2026-05-06 02:26 | 41.95103 | -73.16216 | 9080 ft | 234 kts | 342° |
| 2026-05-06 02:27 | 41.96716 | -73.16485 | 9079 ft | 234 kts | 341° |
| 2026-05-06 02:27 | 41.98321 | -73.16759 | 9046 ft | 232 kts | 341° |
| 2026-05-06 02:27 | 41.99927 | -73.17038 | 9038 ft | 233 kts | 341° |
| 2026-05-06 02:27 | 42.01528 | -73.17324 | 9019 ft | 232 kts | 342° |
| 2026-05-06 02:28 | 42.03134 | -73.17596 | 9032 ft | 233 kts | 341° |
| 2026-05-06 02:28 | 42.04736 | -73.17870 | 9029 ft | 232 kts | 341° |
| 2026-05-06 02:28 | 42.06337 | -73.18142 | 9017 ft | 232 kts | 342° |
| 2026-05-06 02:28 | 42.07934 | -73.18415 | 9008 ft | 232 kts | 341° |
| 2026-05-06 02:29 | 42.09532 | -73.18695 | 9019 ft | 232 kts | 341° |
| 2026-05-06 02:29 | 42.11136 | -73.18973 | 9018 ft | 232 kts | 341° |
| 2026-05-06 02:29 | 42.12740 | -73.19250 | 9016 ft | 232 kts | 341° |
| 2026-05-06 02:29 | 42.14340 | -73.19524 | 9023 ft | 231 kts | 341° |
| 2026-05-06 02:30 | 42.15935 | -73.19797 | 9031 ft | 231 kts | 341° |
| 2026-05-06 02:30 | 42.17529 | -73.20069 | 9020 ft | 230 kts | 342° |
| 2026-05-06 02:30 | 42.19127 | -73.20347 | 9019 ft | 232 kts | 341° |
| 2026-05-06 02:30 | 42.20726 | -73.20629 | 9019 ft | 232 kts | 342° |
| 2026-05-06 02:31 | 42.22329 | -73.20920 | 8990 ft | 233 kts | 342° |
| 2026-05-06 02:31 | 42.23941 | -73.21170 | 8977 ft | 233 kts | 342° |
| 2026-05-06 02:31 | 42.25542 | -73.21443 | 8981 ft | 231 kts | 342° |
| 2026-05-06 02:31 | 42.27140 | -73.21731 | 9001 ft | 232 kts | 341° |
| 2026-05-06 02:32 | 42.28741 | -73.22023 | 8986 ft | 233 kts | 342° |
| 2026-05-06 02:32 | 42.30354 | -73.22290 | 8998 ft | 233 kts | 342° |
| 2026-05-06 02:32 | 42.31961 | -73.22564 | 9035 ft | 233 kts | 341° |
| 2026-05-06 02:32 | 42.33567 | -73.22848 | 9050 ft | 233 kts | 341° |
| 2026-05-06 02:33 | 42.35172 | -73.23132 | 9090 ft | 232 kts | 342° |
| 2026-05-06 02:33 | 42.36231 | -73.23312 | 9105 ft | 232 kts | 341° |
| 2026-05-06 02:33 | 42.39980 | -73.23957 | 9055 ft | 234 kts | 341° |
| 2026-05-06 02:34 | 42.41604 | -73.24241 | 8973 ft | 236 kts | 342° |
| 2026-05-06 02:34 | 42.43237 | -73.24526 | 8891 ft | 236 kts | 341° |
| 2026-05-06 02:34 | 42.44861 | -73.24810 | 8833 ft | 234 kts | 342° |
| 2026-05-06 02:34 | 42.46467 | -73.25087 | 8842 ft | 232 kts | 341° |
| 2026-05-06 02:35 | 42.48059 | -73.25365 | 8846 ft | 230 kts | 341° |
| 2026-05-06 02:35 | 42.49621 | -73.25640 | 8846 ft | 229 kts | 341° |
| 2026-05-06 02:35 | 42.51194 | -73.25920 | 8848 ft | 227 kts | 341° |
| 2026-05-06 02:35 | 42.52754 | -73.26195 | 8847 ft | 225 kts | 341° |
| 2026-05-06 02:36 | 42.54319 | -73.26462 | 8850 ft | 224 kts | 342° |
| 2026-05-06 02:36 | 42.55855 | -73.26723 | 8851 ft | 221 kts | 341° |
| 2026-05-06 02:36 | 42.57383 | -73.26996 | 8852 ft | 222 kts | 341° |
| 2026-05-06 02:36 | 42.58896 | -73.27262 | 8836 ft | 219 kts | 342° |
| 2026-05-06 02:37 | 42.60414 | -73.27525 | 8860 ft | 221 kts | 342° |
| 2026-05-06 02:37 | 42.61947 | -73.27791 | 8847 ft | 223 kts | 342° |
| 2026-05-06 02:37 | 42.63484 | -73.28064 | 8844 ft | 223 kts | 341° |
| 2026-05-06 02:37 | 42.65024 | -73.28337 | 8842 ft | 222 kts | 341° |
| 2026-05-06 02:38 | 42.66549 | -73.28600 | 8855 ft | 220 kts | 341° |
| 2026-05-06 02:38 | 42.68066 | -73.28869 | 8852 ft | 220 kts | 341° |
| 2026-05-06 02:38 | 42.69588 | -73.29135 | 8850 ft | 222 kts | 342° |
| 2026-05-06 02:38 | 42.71124 | -73.29401 | 8849 ft | 223 kts | 342° |
| 2026-05-06 02:39 | 42.72665 | -73.29675 | 8848 ft | 224 kts | 342° |
| 2026-05-06 02:39 | 42.74213 | -73.29946 | 8847 ft | 224 kts | 342° |
| 2026-05-06 02:39 | 42.75756 | -73.30224 | 8845 ft | 224 kts | 342° |
| 2026-05-06 02:39 | 42.77305 | -73.30494 | 8851 ft | 224 kts | 342° |
| 2026-05-06 02:40 | 42.78856 | -73.30760 | 8849 ft | 225 kts | 342° |
| 2026-05-06 02:40 | 42.80407 | -73.31032 | 8848 ft | 226 kts | 341° |
| 2026-05-06 02:40 | 42.81964 | -73.31308 | 8845 ft | 225 kts | 341° |
| 2026-05-06 02:40 | 42.83517 | -73.31587 | 8848 ft | 225 kts | 342° |
| 2026-05-06 02:41 | 42.85074 | -73.31867 | 8848 ft | 225 kts | 342° |
| 2026-05-06 02:41 | 42.86621 | -73.32138 | 8843 ft | 223 kts | 342° |
| 2026-05-06 02:41 | 42.88160 | -73.32405 | 8847 ft | 223 kts | 342° |
| 2026-05-06 02:41 | 42.89699 | -73.32676 | 8849 ft | 223 kts | 342° |
| 2026-05-06 02:42 | 42.91237 | -73.32946 | 8846 ft | 223 kts | 342° |
| 2026-05-06 02:42 | 42.92766 | -73.33220 | 8848 ft | 221 kts | 342° |
| 2026-05-06 02:42 | 42.94291 | -73.33487 | 8848 ft | 220 kts | 342° |
| 2026-05-06 02:42 | 42.95815 | -73.33758 | 8850 ft | 222 kts | 342° |
| 2026-05-06 02:43 | 42.97345 | -73.34035 | 8847 ft | 222 kts | 342° |
| 2026-05-06 02:43 | 42.98880 | -73.34270 | 8824 ft | 222 kts | 349° |
| 2026-05-06 02:43 | 43.00409 | -73.33944 | 8848 ft | 226 kts | 8° |
| 2026-05-06 02:43 | 43.01920 | -73.33271 | 8861 ft | 231 kts | 11° |
| 2026-05-06 02:44 | 43.03450 | -73.32559 | 8842 ft | 234 kts | 11° |
| 2026-05-06 02:44 | 43.04996 | -73.31836 | 8837 ft | 235 kts | 12° |
| 2026-05-06 02:44 | 43.06545 | -73.31118 | 8828 ft | 234 kts | 11° |
| 2026-05-06 02:44 | 43.08090 | -73.30400 | 8844 ft | 235 kts | 12° |
| 2026-05-06 02:45 | 43.09644 | -73.29678 | 8841 ft | 237 kts | 11° |
| 2026-05-06 02:45 | 43.11203 | -73.28956 | 8833 ft | 236 kts | 11° |
| 2026-05-06 02:45 | 43.12761 | -73.28239 | 8844 ft | 237 kts | 11° |
| 2026-05-06 02:45 | 43.14323 | -73.27512 | 8831 ft | 238 kts | 12° |
| 2026-05-06 02:46 | 43.15892 | -73.26780 | 8837 ft | 238 kts | 11° |
| 2026-05-06 02:46 | 43.17456 | -73.26053 | 8829 ft | 236 kts | 12° |
| 2026-05-06 02:46 | 43.19015 | -73.25331 | 8834 ft | 237 kts | 11° |
| 2026-05-06 02:46 | 43.20580 | -73.24606 | 8832 ft | 238 kts | 11° |
| 2026-05-06 02:47 | 43.22147 | -73.23880 | 8830 ft | 237 kts | 12° |
| 2026-05-06 02:47 | 43.23707 | -73.23153 | 8830 ft | 237 kts | 12° |
| 2026-05-06 02:47 | 43.25246 | -73.22439 | 8834 ft | 237 kts | 12° |
| 2026-05-06 02:47 | 43.26807 | -73.21709 | 8830 ft | 237 kts | 12° |
| 2026-05-06 02:48 | 43.28374 | -73.20977 | 8822 ft | 238 kts | 12° |
| 2026-05-06 02:48 | 43.29939 | -73.20249 | 8832 ft | 237 kts | 12° |
| 2026-05-06 02:48 | 43.31497 | -73.19528 | 8827 ft | 236 kts | 12° |
| 2026-05-06 02:48 | 43.33047 | -73.18799 | 8832 ft | 235 kts | 12° |
| 2026-05-06 02:49 | 43.34590 | -73.18078 | 8833 ft | 234 kts | 12° |
| 2026-05-06 02:49 | 43.36139 | -73.17353 | 8831 ft | 236 kts | 12° |
| 2026-05-06 02:49 | 43.37695 | -73.16626 | 8831 ft | 236 kts | 12° |
| 2026-05-06 02:49 | 43.39244 | -73.15900 | 8827 ft | 235 kts | 12° |
| 2026-05-06 02:50 | 43.40783 | -73.15185 | 8831 ft | 235 kts | 12° |
| 2026-05-06 02:50 | 43.42333 | -73.14461 | 8830 ft | 235 kts | 12° |
| 2026-05-06 02:50 | 43.43883 | -73.13731 | 8829 ft | 235 kts | 12° |
| 2026-05-06 02:50 | 43.45435 | -73.13004 | 8815 ft | 235 kts | 12° |
| 2026-05-06 02:51 | 43.46972 | -73.12280 | 8846 ft | 233 kts | 12° |
| 2026-05-06 02:51 | 43.48509 | -73.11568 | 8843 ft | 234 kts | 12° |
| 2026-05-06 02:51 | 43.50052 | -73.10843 | 8844 ft | 235 kts | 12° |
| 2026-05-06 02:51 | 43.51603 | -73.10113 | 8837 ft | 235 kts | 12° |
| 2026-05-06 02:52 | 43.53153 | -73.09387 | 8837 ft | 235 kts | 12° |
| 2026-05-06 02:52 | 43.54704 | -73.08651 | 8834 ft | 236 kts | 13° |
| 2026-05-06 02:52 | 43.56255 | -73.07920 | 8840 ft | 235 kts | 12° |
| 2026-05-06 02:52 | 43.57800 | -73.07204 | 8844 ft | 235 kts | 13° |
| 2026-05-06 02:53 | 43.59340 | -73.06468 | 8833 ft | 234 kts | 13° |
| 2026-05-06 02:53 | 43.60876 | -73.05742 | 8844 ft | 234 kts | 12° |
| 2026-05-06 02:53 | 43.62421 | -73.05023 | 8841 ft | 235 kts | 12° |
| 2026-05-06 02:53 | 43.63969 | -73.04290 | 8827 ft | 235 kts | 12° |
| 2026-05-06 02:54 | 43.65513 | -73.03559 | 8836 ft | 235 kts | 12° |
| 2026-05-06 02:54 | 43.67062 | -73.02832 | 8842 ft | 235 kts | 12° |
| 2026-05-06 02:54 | 43.68610 | -73.02101 | 8836 ft | 236 kts | 13° |
| 2026-05-06 02:54 | 43.70163 | -73.01366 | 8830 ft | 236 kts | 13° |
| 2026-05-06 02:55 | 43.71194 | -73.00876 | 8828 ft | 236 kts | 13° |
| 2026-05-06 02:55 | 43.72749 | -73.00140 | 8831 ft | 237 kts | 13° |
| 2026-05-06 02:55 | 43.74310 | -72.99405 | 8828 ft | 237 kts | 13° |
| 2026-05-06 02:55 | 43.75874 | -72.98661 | 8833 ft | 237 kts | 13° |
| 2026-05-06 02:56 | 43.77438 | -72.97921 | 8825 ft | 237 kts | 13° |
| 2026-05-06 02:56 | 43.78985 | -72.97191 | 8831 ft | 234 kts | 13° |
| 2026-05-06 02:56 | 43.80530 | -72.96453 | 8836 ft | 236 kts | 13° |
| 2026-05-06 02:56 | 43.82082 | -72.95714 | 8832 ft | 236 kts | 13° |
| 2026-05-06 02:57 | 43.83631 | -72.94976 | 8823 ft | 234 kts | 12° |
| 2026-05-06 02:57 | 43.85181 | -72.94241 | 8737 ft | 240 kts | 13° |
| 2026-05-06 02:57 | 43.86778 | -72.93490 | 8569 ft | 246 kts | 13° |
| 2026-05-06 02:57 | 43.88414 | -72.92704 | 8379 ft | 251 kts | 13° |
| 2026-05-06 02:58 | 43.90075 | -72.91918 | 8226 ft | 253 kts | 13° |
| 2026-05-06 02:58 | 43.91753 | -72.91123 | 8064 ft | 256 kts | 14° |
| 2026-05-06 02:58 | 43.93401 | -72.90191 | 7839 ft | 257 kts | 24° |
| 2026-05-06 02:58 | 43.94935 | -72.88869 | 7702 ft | 261 kts | 31° |
| 2026-05-06 02:59 | 43.96430 | -72.87452 | 7581 ft | 256 kts | 31° |
| 2026-05-06 02:59 | 43.97920 | -72.86097 | 7454 ft | 256 kts | 31° |
| 2026-05-06 02:59 | 43.99439 | -72.84749 | 7365 ft | 260 kts | 29° |
| 2026-05-06 02:59 | 44.00965 | -72.83417 | 7276 ft | 257 kts | 30° |
| 2026-05-06 03:00 | 44.02468 | -72.82076 | 7207 ft | 257 kts | 29° |
| 2026-05-06 03:00 | 44.03970 | -72.80749 | 7142 ft | 255 kts | 30° |
| 2026-05-06 03:00 | 44.05466 | -72.79432 | 7037 ft | 255 kts | 30° |
| 2026-05-06 03:00 | 44.06957 | -72.78093 | 6966 ft | 255 kts | 30° |
| 2026-05-06 03:01 | 44.08447 | -72.76761 | 6849 ft | 256 kts | 29° |
| 2026-05-06 03:01 | 44.09943 | -72.75434 | 6772 ft | 254 kts | 29° |
| 2026-05-06 03:01 | 44.11492 | -72.74058 | 6179 ft | 270 kts | 30° |
| 2026-05-06 03:01 | 44.13102 | -72.72631 | 5656 ft | 278 kts | 30° |
| 2026-05-06 03:02 | 44.14743 | -72.71177 | 5143 ft | 279 kts | 31° |
| 2026-05-06 03:02 | 44.16332 | -72.69753 | 5031 ft | 267 kts | 32° |
| 2026-05-06 03:02 | 44.17866 | -72.68357 | 4885 ft | 260 kts | 31° |
| 2026-05-06 03:02 | 44.19374 | -72.67020 | 4772 ft | 254 kts | 30° |
| 2026-05-06 03:03 | 44.20909 | -72.65900 | 4614 ft | 252 kts | 15° |
| 2026-05-06 03:03 | 44.22596 | -72.65455 | 4511 ft | 244 kts | 359° |
| 2026-05-06 03:03 | 44.24162 | -72.65655 | 4425 ft | 238 kts | 342° |
| 2026-05-06 03:03 | 44.25687 | -72.66473 | 4295 ft | 233 kts | 326° |
| 2026-05-06 03:04 | 44.26960 | -72.67814 | 4162 ft | 228 kts | 310° |
| 2026-05-06 03:04 | 44.27912 | -72.69553 | 3998 ft | 224 kts | 297° |
| 2026-05-06 03:04 | 44.28847 | -72.71222 | 3799 ft | 223 kts | 315° |
| 2026-05-06 03:04 | 44.30252 | -72.72236 | 3611 ft | 230 kts | 343° |
| 2026-05-06 03:05 | 44.31838 | -72.72244 | 3454 ft | 235 kts | 10° |
| 2026-05-06 03:05 | 44.33373 | -72.71450 | 3294 ft | 237 kts | 13° |
| 2026-05-06 03:05 | 44.34996 | -72.71384 | 3184 ft | 233 kts | 345° |
| 2026-05-06 03:05 | 44.36474 | -72.72223 | 3065 ft | 227 kts | 331° |
| 2026-05-06 03:06 | 44.38002 | -72.72834 | 2870 ft | 231 kts | 347° |
| 2026-05-06 03:06 | 44.39617 | -72.72949 | 2778 ft | 231 kts | 3° |
| 2026-05-06 03:06 | 44.41158 | -72.72505 | 2826 ft | 224 kts | 20° |
| 2026-05-06 03:06 | 44.42551 | -72.71545 | 2829 ft | 223 kts | 27° |
| 2026-05-06 03:07 | 44.43919 | -72.70558 | 2823 ft | 221 kts | 27° |
| 2026-05-06 03:07 | 44.45227 | -72.69443 | 2832 ft | 220 kts | 36° |
| 2026-05-06 03:07 | 44.46485 | -72.68211 | 2592 ft | 218 kts | 36° |
| 2026-05-06 03:07 | 44.47669 | -72.67059 | 2282 ft | 197 kts | 37° |
| 2026-05-06 03:08 | 44.48728 | -72.66010 | 1952 ft | 177 kts | 37° |
| 2026-05-06 03:08 | 44.49710 | -72.65037 | 1617 ft | 169 kts | 37° |
| 2026-05-06 03:08 | 44.50623 | -72.64141 | 1480 ft | 147 kts | 36° |
| 2026-05-06 03:08 | 44.51384 | -72.63394 | 1444 ft | 124 kts | 39° |
| 2026-05-06 03:09 | 44.52022 | -72.62616 | 1219 ft | 113 kts | 43° |
| 2026-05-06 03:09 | 44.52489 | -72.61940 | 999 ft | 84 kts | 45° |
| 2026-05-06 03:09 | 44.52830 | -72.61418 | 727 ft | 43 kts | 59° |
| 2026-05-06 03:09 | 44.52992 | -72.61383 | 739 ft | 17 kts | 355° |